createdAt,value
2022-12-25T00:03:53.052Z,100317.30
2022-12-25T00:08:56.161Z,100312.95
2022-12-25T00:13:59.174Z,100312.49
2022-12-25T00:19:02.304Z,100314.82
2022-12-25T00:24:05.662Z,100322.60
2022-12-25T00:29:13.010Z,100325.70
2022-12-25T00:34:16.011Z,100325.02
2022-12-25T00:39:19.210Z,100325.41
2022-12-25T00:44:22.226Z,100330.42
2022-12-25T00:49:25.453Z,100344.06
2022-12-25T00:54:28.751Z,100346.07
2022-12-25T00:59:33.537Z,100350.41
2022-12-25T01:04:37.752Z,100363.19
2022-12-25T01:09:59.273Z,100373.35
2022-12-25T01:15:02.585Z,100380.48
2022-12-25T01:20:06.350Z,100389.79
2022-12-25T01:25:10.753Z,100389.64
2022-12-25T01:30:13.856Z,100383.45
2022-12-25T01:35:16.968Z,100386.19
2022-12-25T01:40:20.189Z,100395.33
2022-12-25T01:45:40.969Z,100395.86
2022-12-25T01:50:50.047Z,100389.42
2022-12-25T01:55:59.405Z,100381.36
2022-12-25T02:01:02.543Z,100380.50
2022-12-25T02:06:06.829Z,100372.27
2022-12-25T02:11:29.833Z,100375.45
2022-12-25T02:16:56.760Z,100382.36
2022-12-25T02:22:46.600Z,100393.88
2022-12-25T02:28:07.631Z,100401.70
2022-12-25T02:33:58.677Z,100407.36
2022-12-25T02:39:24.200Z,100417.96
2022-12-25T02:44:48.093Z,100408.94
2022-12-25T02:50:12.941Z,100407.41
2022-12-25T02:55:40.494Z,100408.14
2022-12-25T03:01:07.274Z,100405.97
2022-12-25T03:06:30.042Z,100409.00
2022-12-25T03:11:33.352Z,100416.95
2022-12-25T03:16:51.891Z,100415.45
2022-12-25T03:22:14.790Z,100419.89
2022-12-25T03:27:17.899Z,100418.50
2022-12-25T03:32:27.152Z,100418.85
2022-12-25T03:37:33.026Z,100414.05
2022-12-25T03:43:05.623Z,100417.35
2022-12-25T03:48:13.624Z,100415.24
2022-12-25T03:53:43.483Z,100418.25
2022-12-25T03:59:22.904Z,100421.61
2022-12-25T04:04:45.709Z,100429.10
2022-12-25T04:10:07.250Z,100430.30
2022-12-25T04:15:29.556Z,100427.42
2022-12-25T04:20:51.461Z,100428.96
2022-12-25T04:26:16.074Z,100421.97
2022-12-25T04:31:37.877Z,100433.81
2022-12-25T04:36:41.134Z,100443.63
2022-12-25T04:41:44.240Z,100438.42
2022-12-25T04:46:47.271Z,100434.09
2022-12-25T04:51:50.461Z,100428.92
2022-12-25T04:56:53.671Z,100431.22
2022-12-25T05:01:56.726Z,100432.20
2022-12-25T05:06:59.894Z,100433.86
2022-12-25T05:12:03.106Z,100440.06
2022-12-25T05:17:08.048Z,100441.85
2022-12-25T05:22:11.069Z,100443.38
2022-12-25T05:27:15.359Z,100447.38
2022-12-25T05:32:18.302Z,100453.78
2022-12-25T05:37:21.308Z,100470.55
2022-12-25T05:42:24.414Z,100470.73
2022-12-25T05:47:27.318Z,100476.20
2022-12-25T05:52:34.834Z,100478.55
2022-12-25T05:57:37.735Z,100478.73
2022-12-25T06:02:40.754Z,100478.54
2022-12-25T06:07:43.951Z,100477.68
2022-12-25T06:12:46.962Z,100487.41
2022-12-25T06:17:49.967Z,100489.13
2022-12-25T06:22:53.174Z,100496.63
2022-12-25T06:27:56.395Z,100504.81
2022-12-25T06:33:00.501Z,100509.15
2022-12-25T06:38:03.533Z,100522.65
2022-12-25T06:43:06.532Z,100529.52
2022-12-25T06:48:09.508Z,100534.57
2022-12-25T06:53:12.647Z,100547.31
2022-12-25T06:58:15.766Z,100562.28
2022-12-25T07:03:21.744Z,100582.29
2022-12-25T07:08:24.738Z,100582.36
2022-12-25T07:13:27.843Z,100584.39
2022-12-25T07:18:31.896Z,100588.88
2022-12-25T07:23:35.375Z,100598.77
2022-12-25T07:28:38.941Z,100603.33
2022-12-25T07:33:42.432Z,100612.98
2022-12-25T07:38:49.819Z,100618.55
2022-12-25T07:43:54.061Z,100623.33
2022-12-25T07:48:57.087Z,100630.82
2022-12-25T07:54:00.134Z,100633.19
2022-12-25T07:59:03.210Z,100636.03
2022-12-25T08:04:06.469Z,100637.20
2022-12-25T08:09:12.907Z,100643.02
2022-12-25T08:14:15.916Z,100648.83
2022-12-25T08:19:19.655Z,100659.06
2022-12-25T08:24:24.954Z,100669.42
2022-12-25T08:29:29.344Z,100671.41
2022-12-25T08:34:33.013Z,100671.66
2022-12-25T08:39:36.470Z,100673.73
2022-12-25T08:44:39.585Z,100673.88
2022-12-25T08:49:42.657Z,100681.54
2022-12-25T08:54:47.227Z,100689.98
2022-12-25T08:59:50.489Z,100685.65
2022-12-25T09:04:53.544Z,100681.80
2022-12-25T09:09:56.669Z,100676.72
2022-12-25T09:15:00.121Z,100680.44
2022-12-25T09:20:03.814Z,100685.89
2022-12-25T09:25:07.581Z,100683.16
2022-12-25T09:30:11.459Z,100688.70
2022-12-25T09:35:17.936Z,100685.60
2022-12-25T09:40:30.366Z,100680.67
2022-12-25T09:45:38.286Z,100684.71
2022-12-25T09:50:48.572Z,100685.73
2022-12-25T09:56:27.390Z,100691.23
2022-12-25T10:01:30.404Z,100687.61
2022-12-25T10:06:33.521Z,100695.13
2022-12-25T10:12:17.805Z,100699.13
2022-12-25T10:17:52.665Z,100698.89
2022-12-25T10:23:01.578Z,100690.95
2022-12-25T10:28:14.675Z,100699.40
2022-12-25T10:33:17.649Z,100708.30
2022-12-25T10:38:20.752Z,100704.05
2022-12-25T10:43:45.569Z,100692.41
2022-12-25T10:48:53.967Z,100687.16
2022-12-25T10:53:58.249Z,100687.22
2022-12-25T10:59:10.781Z,100675.70
2022-12-25T11:04:23.520Z,100683.59
2022-12-25T11:09:27.723Z,100682.14
2022-12-25T11:14:31.480Z,100682.25
2022-12-25T11:19:35.092Z,100680.85
2022-12-25T11:24:38.189Z,100690.14
2022-12-25T11:29:44.071Z,100695.67
2022-12-25T11:34:49.149Z,100697.98
2022-12-25T11:39:52.226Z,100702.13
2022-12-25T11:45:05.479Z,100704.02
2022-12-25T11:50:31.007Z,100706.66
2022-12-25T11:55:39.953Z,100710.07
2022-12-25T12:00:46.652Z,100716.73
2022-12-25T12:05:57.204Z,100718.67
2022-12-25T12:11:35.684Z,100723.05
2022-12-25T12:16:39.030Z,100717.83
2022-12-25T12:21:49.472Z,100721.39
2022-12-25T12:27:16.916Z,100713.77
2022-12-25T12:32:50.544Z,100703.96
2022-12-25T12:38:23.671Z,100696.30
2022-12-25T12:43:31.919Z,100695.62
2022-12-25T12:48:43.307Z,100693.68
2022-12-25T12:53:48.681Z,100696.59
2022-12-25T12:58:53.950Z,100691.17
2022-12-25T13:04:15.620Z,100689.23
2022-12-25T13:09:39.303Z,100700.79
2022-12-25T13:14:50.936Z,100709.91
2022-12-25T13:20:05.804Z,100710.81
2022-12-25T13:25:24.600Z,100713.27
2022-12-25T13:30:33.491Z,100712.64
2022-12-25T13:35:44.566Z,100704.71
2022-12-25T13:41:14.441Z,100702.46
2022-12-25T13:46:28.040Z,100703.81
2022-12-25T13:51:34.571Z,100705.82
2022-12-25T13:56:53.435Z,100714.59
2022-12-25T14:02:04.280Z,100711.24
2022-12-25T14:07:13.336Z,100710.61
2022-12-25T14:12:20.550Z,100703.67
2022-12-25T14:17:27.912Z,100704.30
2022-12-25T14:22:35.996Z,100703.14
2022-12-25T14:27:43.504Z,100703.36
2022-12-25T14:32:54.953Z,100715.67
2022-12-25T14:38:02.314Z,100727.66
2022-12-25T14:43:25.754Z,100741.30
2022-12-25T14:48:33.152Z,100754.63
2022-12-25T14:53:50.093Z,100754.75
2022-12-25T14:59:00.905Z,100760.50
2022-12-25T15:04:25.066Z,100762.15
2022-12-25T15:09:30.142Z,100751.78
2022-12-25T15:14:36.502Z,100751.95
2022-12-25T15:19:39.657Z,100742.05
2022-12-25T15:24:42.631Z,100739.23
2022-12-25T15:30:09.265Z,100747.66
2022-12-25T15:35:16.590Z,100747.02
2022-12-25T15:40:21.598Z,100738.95
2022-12-25T15:45:27.818Z,100730.34
2022-12-25T15:50:32.752Z,100716.20
2022-12-25T15:55:36.912Z,100702.36
2022-12-25T16:00:39.918Z,100703.33
2022-12-25T16:05:42.940Z,100698.04
2022-12-25T16:10:46.227Z,100712.57
2022-12-25T16:15:49.305Z,100743.37
2022-12-25T16:20:53.862Z,100743.23
2022-12-25T16:25:56.824Z,100735.34
2022-12-25T16:30:59.938Z,100742.27
2022-12-25T16:36:03.031Z,100744.14
2022-12-25T16:41:06.211Z,100744.52
2022-12-25T16:46:15.534Z,100739.40
2022-12-25T16:51:20.969Z,100737.17
2022-12-25T16:56:28.668Z,100738.86
2022-12-25T17:01:31.963Z,100725.55
2022-12-25T17:06:35.867Z,100725.95
2022-12-25T17:11:38.903Z,100730.75
2022-12-25T17:16:41.997Z,100736.23
2022-12-25T17:21:45.631Z,100725.01
2022-12-25T17:26:48.869Z,100718.98
2022-12-25T17:31:52.128Z,100718.48
2022-12-25T17:36:55.267Z,100715.02
2022-12-25T17:41:58.586Z,100713.64
2022-12-25T17:47:01.618Z,100714.66
2022-12-25T17:52:04.888Z,100712.77
2022-12-25T17:57:08.004Z,100713.32
2022-12-25T18:02:12.151Z,100712.50
2022-12-25T18:07:16.169Z,100702.56
2022-12-25T18:12:19.277Z,100700.89
2022-12-25T18:17:22.284Z,100698.13
2022-12-25T18:22:25.397Z,100697.27
2022-12-25T18:27:28.600Z,100686.92
2022-12-25T18:32:31.846Z,100679.90
2022-12-25T18:37:40.020Z,100678.02
2022-12-25T18:42:46.455Z,100679.77
2022-12-25T18:47:49.434Z,100678.25
2022-12-25T18:52:52.574Z,100678.98
2022-12-25T18:57:56.433Z,100676.67
2022-12-25T19:02:59.773Z,100673.98
2022-12-25T19:08:03.509Z,100665.09
2022-12-25T19:13:07.033Z,100655.27
2022-12-25T19:18:10.743Z,100648.38
2022-12-25T19:23:13.753Z,100644.11
2022-12-25T19:28:17.987Z,100630.02
2022-12-25T19:33:22.931Z,100626.41
2022-12-25T19:38:26.215Z,100624.02
2022-12-25T19:43:38.174Z,100618.53
2022-12-25T19:48:41.292Z,100607.17
2022-12-25T19:53:45.179Z,100604.98
2022-12-25T19:58:48.321Z,100604.98
2022-12-25T20:03:52.121Z,100604.14
2022-12-25T20:08:57.881Z,100620.01
2022-12-25T20:14:00.922Z,100622.13
2022-12-25T20:19:04.437Z,100620.60
2022-12-25T20:24:10.433Z,100609.05
2022-12-25T20:29:13.531Z,100606.13
2022-12-25T20:34:16.533Z,100610.13
2022-12-25T20:39:19.744Z,100614.48
2022-12-25T20:44:22.751Z,100614.89
2022-12-25T20:49:26.071Z,100608.71
2022-12-25T20:54:29.066Z,100598.25
2022-12-25T20:59:37.351Z,100590.32
2022-12-25T21:04:41.342Z,100586.06
2022-12-25T21:09:44.539Z,100575.06
2022-12-25T21:14:47.547Z,100562.64
2022-12-25T21:19:50.959Z,100561.28
2022-12-25T21:24:54.075Z,100555.08
2022-12-25T21:29:57.182Z,100546.99
2022-12-25T21:35:00.291Z,100532.20
2022-12-25T21:40:03.507Z,100519.83
2022-12-25T21:45:07.286Z,100510.52
2022-12-25T21:50:32.428Z,100518.52
2022-12-25T21:55:37.815Z,100514.38
2022-12-25T22:00:41.022Z,100503.00
2022-12-25T22:06:02.867Z,100496.46
2022-12-25T22:11:05.784Z,100496.09
2022-12-25T22:16:27.622Z,100487.45
2022-12-25T22:21:30.730Z,100466.90
2022-12-25T22:26:35.353Z,100465.69
2022-12-25T22:31:42.705Z,100448.41
2022-12-25T22:36:49.881Z,100435.80
2022-12-25T22:41:57.607Z,100415.59
2022-12-25T22:47:00.818Z,100414.05
2022-12-25T22:52:04.521Z,100403.53
2022-12-25T22:57:07.552Z,100392.88
2022-12-25T23:02:10.733Z,100379.63
2022-12-25T23:07:14.692Z,100378.81
2022-12-25T23:12:36.431Z,100374.50
2022-12-25T23:17:58.384Z,100363.85
2022-12-25T23:23:20.538Z,100350.26
2022-12-25T23:28:56.101Z,100339.22
2022-12-25T23:33:59.728Z,100326.82
2022-12-25T23:39:09.471Z,100338.05
2022-12-25T23:44:13.937Z,100358.80
2022-12-25T23:49:17.155Z,100354.67
2022-12-25T23:54:23.340Z,100348.86
2022-12-25T23:59:28.448Z,100351.85
